sensor_id;sensor_type;location;lat;lon;timestamp;P1;durP1;ratioP1;P2;durP2;ratioP2
6432;SDS011;3249;42.690;23.260;2023-07-24T00:00:48;10.97;;;9.30;;
6432;SDS011;3249;42.690;23.260;2023-07-24T00:03:17;10.00;;;9.00;;
6432;SDS011;3249;42.690;23.260;2023-07-24T00:05:49;9.90;;;8.90;;
6432;SDS011;3249;42.690;23.260;2023-07-24T00:08:17;10.80;;;9.13;;
6432;SDS011;3249;42.690;23.260;2023-07-24T00:10:47;13.03;;;9.40;;
6432;SDS011;3249;42.690;23.260;2023-07-24T00:13:16;10.07;;;9.07;;
6432;SDS011;3249;42.690;23.260;2023-07-24T00:15:45;12.57;;;9.50;;
6432;SDS011;3249;42.690;23.260;2023-07-24T00:18:14;13.10;;;9.90;;
6432;SDS011;3249;42.690;23.260;2023-07-24T00:20:43;12.40;;;9.63;;
6432;SDS011;3249;42.690;23.260;2023-07-24T00:23:14;11.00;;;9.37;;
6432;SDS011;3249;42.690;23.260;2023-07-24T00:25:43;10.10;;;8.83;;
6432;SDS011;3249;42.690;23.260;2023-07-24T00:28:12;12.87;;;10.23;;
6432;SDS011;3249;42.690;23.260;2023-07-24T00:30:42;11.40;;;10.20;;
6432;SDS011;3249;42.690;23.260;2023-07-24T00:33:10;12.03;;;10.37;;
6432;SDS011;3249;42.690;23.260;2023-07-24T00:35:40;14.10;;;10.00;;
6432;SDS011;3249;42.690;23.260;2023-07-24T00:38:08;12.27;;;9.40;;
6432;SDS011;3249;42.690;23.260;2023-07-24T00:40:40;10.50;;;9.50;;
6432;SDS011;3249;42.690;23.260;2023-07-24T00:43:11;10.77;;;9.00;;
6432;SDS011;3249;42.690;23.260;2023-07-24T00:45:39;12.90;;;10.93;;
6432;SDS011;3249;42.690;23.260;2023-07-24T00:48:08;12.53;;;10.63;;
6432;SDS011;3249;42.690;23.260;2023-07-24T00:50:39;13.10;;;10.80;;
6432;SDS011;3249;42.690;23.260;2023-07-24T00:53:11;11.60;;;9.30;;
6432;SDS011;3249;42.690;23.260;2023-07-24T00:55:43;10.13;;;9.13;;
6432;SDS011;3249;42.690;23.260;2023-07-24T00:58:13;11.13;;;10.00;;
6432;SDS011;3249;42.690;23.260;2023-07-24T01:00:45;12.87;;;10.20;;
6432;SDS011;3249;42.690;23.260;2023-07-24T01:03:14;13.13;;;10.27;;
6432;SDS011;3249;42.690;23.260;2023-07-24T01:05:44;11.40;;;9.87;;
6432;SDS011;3249;42.690;23.260;2023-07-24T01:08:13;15.23;;;9.70;;
6432;SDS011;3249;42.690;23.260;2023-07-24T01:10:44;10.90;;;9.80;;
6432;SDS011;3249;42.690;23.260;2023-07-24T01:13:14;11.20;;;9.33;;
6432;SDS011;3249;42.690;23.260;2023-07-24T01:15:48;10.10;;;9.10;;
6432;SDS011;3249;42.690;23.260;2023-07-24T01:18:23;11.53;;;9.27;;
6432;SDS011;3249;42.690;23.260;2023-07-24T01:20:55;11.07;;;8.90;;
6432;SDS011;3249;42.690;23.260;2023-07-24T01:23:33;13.40;;;10.27;;
6432;SDS011;3249;42.690;23.260;2023-07-24T01:26:17;10.33;;;9.20;;
6432;SDS011;3249;42.690;23.260;2023-07-24T01:28:47;15.93;;;10.57;;
6432;SDS011;3249;42.690;23.260;2023-07-24T01:31:16;14.23;;;9.97;;
6432;SDS011;3249;42.690;23.260;2023-07-24T01:33:46;17.70;;;9.80;;
6432;SDS011;3249;42.690;23.260;2023-07-24T01:36:18;11.87;;;10.67;;
6432;SDS011;3249;42.690;23.260;2023-07-24T01:38:47;10.80;;;9.67;;
6432;SDS011;3249;42.690;23.260;2023-07-24T01:41:21;13.73;;;10.30;;
6432;SDS011;3249;42.690;23.260;2023-07-24T01:43:50;14.70;;;10.10;;
6432;SDS011;3249;42.690;23.260;2023-07-24T01:46:19;15.70;;;10.13;;
6432;SDS011;3249;42.690;23.260;2023-07-24T01:48:49;15.37;;;11.03;;
6432;SDS011;3249;42.690;23.260;2023-07-24T01:51:23;14.37;;;10.73;;
6432;SDS011;3249;42.690;23.260;2023-07-24T01:53:52;12.27;;;9.80;;
6432;SDS011;3249;42.690;23.260;2023-07-24T01:56:24;12.83;;;10.47;;
6432;SDS011;3249;42.690;23.260;2023-07-24T01:58:53;11.13;;;9.57;;
6432;SDS011;3249;42.690;23.260;2023-07-24T02:01:22;13.03;;;9.77;;
6432;SDS011;3249;42.690;23.260;2023-07-24T02:03:51;15.07;;;10.67;;
6432;SDS011;3249;42.690;23.260;2023-07-24T02:06:20;15.53;;;10.70;;
6432;SDS011;3249;42.690;23.260;2023-07-24T02:08:49;14.53;;;10.77;;
6432;SDS011;3249;42.690;23.260;2023-07-24T02:11:18;13.40;;;10.53;;
6432;SDS011;3249;42.690;23.260;2023-07-24T02:13:50;12.47;;;11.10;;
6432;SDS011;3249;42.690;23.260;2023-07-24T02:16:19;15.87;;;10.37;;
6432;SDS011;3249;42.690;23.260;2023-07-24T02:18:49;12.53;;;10.37;;
6432;SDS011;3249;42.690;23.260;2023-07-24T02:21:18;12.97;;;10.30;;
6432;SDS011;3249;42.690;23.260;2023-07-24T02:23:47;14.70;;;10.33;;
6432;SDS011;3249;42.690;23.260;2023-07-24T02:26:16;16.07;;;11.10;;
6432;SDS011;3249;42.690;23.260;2023-07-24T02:28:45;14.03;;;10.80;;
6432;SDS011;3249;42.690;23.260;2023-07-24T02:31:16;18.73;;;10.90;;
6432;SDS011;3249;42.690;23.260;2023-07-24T02:33:45;12.17;;;10.77;;
6432;SDS011;3249;42.690;23.260;2023-07-24T02:36:15;18.50;;;10.10;;
6432;SDS011;3249;42.690;23.260;2023-07-24T02:38:44;10.63;;;9.47;;
6432;SDS011;3249;42.690;23.260;2023-07-24T02:41:13;17.43;;;11.40;;
6432;SDS011;3249;42.690;23.260;2023-07-24T02:43:42;16.10;;;10.57;;
6432;SDS011;3249;42.690;23.260;2023-07-24T02:46:11;14.93;;;10.67;;
6432;SDS011;3249;42.690;23.260;2023-07-24T02:48:42;22.87;;;11.60;;
6432;SDS011;3249;42.690;23.260;2023-07-24T02:51:11;17.37;;;10.80;;
6432;SDS011;3249;42.690;23.260;2023-07-24T02:53:40;11.27;;;9.97;;
6432;SDS011;3249;42.690;23.260;2023-07-24T02:56:09;11.93;;;10.13;;
6432;SDS011;3249;42.690;23.260;2023-07-24T02:58:38;12.10;;;10.83;;
6432;SDS011;3249;42.690;23.260;2023-07-24T03:01:07;14.67;;;10.07;;
6432;SDS011;3249;42.690;23.260;2023-07-24T03:03:38;13.33;;;9.70;;
6432;SDS011;3249;42.690;23.260;2023-07-24T03:06:09;17.87;;;10.23;;
6432;SDS011;3249;42.690;23.260;2023-07-24T03:08:38;13.97;;;9.90;;
6432;SDS011;3249;42.690;23.260;2023-07-24T03:11:08;14.90;;;10.43;;
6432;SDS011;3249;42.690;23.260;2023-07-24T03:13:37;12.20;;;9.80;;
6432;SDS011;3249;42.690;23.260;2023-07-24T03:16:06;11.50;;;9.37;;
6432;SDS011;3249;42.690;23.260;2023-07-24T03:18:35;13.07;;;10.43;;
6432;SDS011;3249;42.690;23.260;2023-07-24T03:21:04;12.93;;;10.07;;
6432;SDS011;3249;42.690;23.260;2023-07-24T03:23:36;13.60;;;9.53;;
6432;SDS011;3249;42.690;23.260;2023-07-24T03:26:05;16.23;;;9.83;;
6432;SDS011;3249;42.690;23.260;2023-07-24T03:28:34;13.43;;;9.83;;
6432;SDS011;3249;42.690;23.260;2023-07-24T03:31:04;13.00;;;9.90;;
6432;SDS011;3249;42.690;23.260;2023-07-24T03:33:32;12.17;;;9.47;;
6432;SDS011;3249;42.690;23.260;2023-07-24T03:36:03;14.57;;;10.17;;
6432;SDS011;3249;42.690;23.260;2023-07-24T03:38:35;11.47;;;9.67;;
6432;SDS011;3249;42.690;23.260;2023-07-24T03:41:04;22.93;;;10.70;;
6432;SDS011;3249;42.690;23.260;2023-07-24T03:43:33;19.33;;;10.10;;
6432;SDS011;3249;42.690;23.260;2023-07-24T03:46:09;16.40;;;10.33;;
6432;SDS011;3249;42.690;23.260;2023-07-24T03:48:39;13.30;;;10.43;;
6432;SDS011;3249;42.690;23.260;2023-07-24T03:51:08;12.57;;;11.03;;
6432;SDS011;3249;42.690;23.260;2023-07-24T03:53:40;20.67;;;11.40;;
6432;SDS011;3249;42.690;23.260;2023-07-24T03:56:08;18.63;;;12.60;;
6432;SDS011;3249;42.690;23.260;2023-07-24T03:58:37;13.60;;;10.60;;
6432;SDS011;3249;42.690;23.260;2023-07-24T04:01:07;13.97;;;10.63;;
6432;SDS011;3249;42.690;23.260;2023-07-24T04:03:37;20.13;;;11.80;;
6432;SDS011;3249;42.690;23.260;2023-07-24T04:06:06;21.57;;;10.80;;
6432;SDS011;3249;42.690;23.260;2023-07-24T04:08:35;23.20;;;11.67;;
6432;SDS011;3249;42.690;23.260;2023-07-24T04:11:06;14.40;;;10.60;;
6432;SDS011;3249;42.690;23.260;2023-07-24T04:13:35;14.47;;;10.07;;
6432;SDS011;3249;42.690;23.260;2023-07-24T04:16:04;11.40;;;9.37;;
6432;SDS011;3249;42.690;23.260;2023-07-24T04:18:34;11.53;;;9.40;;
6432;SDS011;3249;42.690;23.260;2023-07-24T04:21:03;11.97;;;9.90;;
6432;SDS011;3249;42.690;23.260;2023-07-24T04:23:31;17.57;;;10.80;;
6432;SDS011;3249;42.690;23.260;2023-07-24T04:26:00;17.90;;;11.20;;
6432;SDS011;3249;42.690;23.260;2023-07-24T04:28:32;17.47;;;11.27;;
6432;SDS011;3249;42.690;23.260;2023-07-24T04:31:01;12.43;;;10.37;;
6432;SDS011;3249;42.690;23.260;2023-07-24T04:33:30;13.20;;;10.67;;
6432;SDS011;3249;42.690;23.260;2023-07-24T04:35:59;18.13;;;11.90;;
6432;SDS011;3249;42.690;23.260;2023-07-24T04:38:28;16.83;;;12.33;;
6432;SDS011;3249;42.690;23.260;2023-07-24T04:40:57;15.10;;;11.17;;
6432;SDS011;3249;42.690;23.260;2023-07-24T04:43:28;14.90;;;12.07;;
6432;SDS011;3249;42.690;23.260;2023-07-24T04:46:01;16.27;;;11.70;;
6432;SDS011;3249;42.690;23.260;2023-07-24T04:48:30;12.73;;;11.43;;
6432;SDS011;3249;42.690;23.260;2023-07-24T04:50:59;13.77;;;11.53;;
6432;SDS011;3249;42.690;23.260;2023-07-24T04:53:28;12.83;;;11.27;;
6432;SDS011;3249;42.690;23.260;2023-07-24T04:55:57;18.47;;;11.50;;
6432;SDS011;3249;42.690;23.260;2023-07-24T04:58:26;19.10;;;11.73;;
6432;SDS011;3249;42.690;23.260;2023-07-24T05:00:55;12.23;;;10.93;;
6432;SDS011;3249;42.690;23.260;2023-07-24T05:03:26;15.10;;;11.83;;
6432;SDS011;3249;42.690;23.260;2023-07-24T05:05:55;13.33;;;11.93;;
6432;SDS011;3249;42.690;23.260;2023-07-24T05:08:24;17.13;;;12.50;;
6432;SDS011;3249;42.690;23.260;2023-07-24T05:10:54;20.90;;;12.90;;
6432;SDS011;3249;42.690;23.260;2023-07-24T05:13:24;19.87;;;12.70;;
6432;SDS011;3249;42.690;23.260;2023-07-24T05:15:53;19.20;;;12.77;;
6432;SDS011;3249;42.690;23.260;2023-07-24T05:18:22;16.90;;;11.80;;
6432;SDS011;3249;42.690;23.260;2023-07-24T05:20:53;16.00;;;12.60;;
6432;SDS011;3249;42.690;23.260;2023-07-24T05:23:22;15.83;;;12.00;;
6432;SDS011;3249;42.690;23.260;2023-07-24T05:25:56;15.00;;;11.83;;
6432;SDS011;3249;42.690;23.260;2023-07-24T05:28:25;16.63;;;11.87;;
6432;SDS011;3249;42.690;23.260;2023-07-24T05:30:55;16.27;;;12.77;;
6432;SDS011;3249;42.690;23.260;2023-07-24T05:33:24;16.17;;;13.23;;
6432;SDS011;3249;42.690;23.260;2023-07-24T05:35:59;18.30;;;12.80;;
6432;SDS011;3249;42.690;23.260;2023-07-24T05:38:29;24.67;;;13.03;;
6432;SDS011;3249;42.690;23.260;2023-07-24T05:40:59;20.77;;;13.33;;
6432;SDS011;3249;42.690;23.260;2023-07-24T05:43:30;20.27;;;14.67;;
6432;SDS011;3249;42.690;23.260;2023-07-24T05:45:59;20.13;;;12.37;;
6432;SDS011;3249;42.690;23.260;2023-07-24T05:48:28;21.97;;;13.13;;
6432;SDS011;3249;42.690;23.260;2023-07-24T05:50:59;18.10;;;12.97;;
6432;SDS011;3249;42.690;23.260;2023-07-24T05:53:28;13.33;;;11.63;;
6432;SDS011;3249;42.690;23.260;2023-07-24T05:56:01;22.90;;;13.53;;
6432;SDS011;3249;42.690;23.260;2023-07-24T05:58:32;17.13;;;12.47;;
6432;SDS011;3249;42.690;23.260;2023-07-24T06:01:04;17.70;;;13.17;;
6432;SDS011;3249;42.690;23.260;2023-07-24T06:03:35;20.03;;;14.77;;
6432;SDS011;3249;42.690;23.260;2023-07-24T06:06:09;22.03;;;14.07;;
6432;SDS011;3249;42.690;23.260;2023-07-24T06:08:39;24.50;;;14.27;;
6432;SDS011;3249;42.690;23.260;2023-07-24T06:11:09;15.63;;;13.43;;
6432;SDS011;3249;42.690;23.260;2023-07-24T06:13:44;20.17;;;14.67;;
6432;SDS011;3249;42.690;23.260;2023-07-24T06:16:13;22.83;;;16.30;;
6432;SDS011;3249;42.690;23.260;2023-07-24T06:18:44;19.80;;;16.53;;
6432;SDS011;3249;42.690;23.260;2023-07-24T06:21:16;19.07;;;15.07;;
6432;SDS011;3249;42.690;23.260;2023-07-24T06:23:45;15.27;;;13.40;;
6432;SDS011;3249;42.690;23.260;2023-07-24T06:26:14;18.23;;;12.97;;
6432;SDS011;3249;42.690;23.260;2023-07-24T06:28:43;18.37;;;13.03;;
6432;SDS011;3249;42.690;23.260;2023-07-24T06:31:13;18.63;;;13.47;;
6432;SDS011;3249;42.690;23.260;2023-07-24T06:33:42;16.30;;;12.83;;
6432;SDS011;3249;42.690;23.260;2023-07-24T06:36:11;18.40;;;13.77;;
6432;SDS011;3249;42.690;23.260;2023-07-24T06:38:43;17.60;;;13.23;;
6432;SDS011;3249;42.690;23.260;2023-07-24T06:41:19;21.97;;;12.90;;
6432;SDS011;3249;42.690;23.260;2023-07-24T06:43:49;20.00;;;14.67;;
6432;SDS011;3249;42.690;23.260;2023-07-24T06:46:17;19.03;;;13.27;;
6432;SDS011;3249;42.690;23.260;2023-07-24T06:48:47;17.13;;;12.90;;
6432;SDS011;3249;42.690;23.260;2023-07-24T06:51:17;18.20;;;13.97;;
6432;SDS011;3249;42.690;23.260;2023-07-24T06:53:48;18.70;;;13.97;;
6432;SDS011;3249;42.690;23.260;2023-07-24T06:56:17;21.87;;;19.37;;
6432;SDS011;3249;42.690;23.260;2023-07-24T06:58:46;23.90;;;16.93;;
6432;SDS011;3249;42.690;23.260;2023-07-24T07:01:16;21.53;;;14.00;;
6432;SDS011;3249;42.690;23.260;2023-07-24T07:03:45;18.63;;;14.07;;
6432;SDS011;3249;42.690;23.260;2023-07-24T07:06:15;19.27;;;13.53;;
6432;SDS011;3249;42.690;23.260;2023-07-24T07:08:44;19.83;;;14.30;;
6432;SDS011;3249;42.690;23.260;2023-07-24T07:11:15;16.83;;;13.27;;
6432;SDS011;3249;42.690;23.260;2023-07-24T07:13:45;16.97;;;13.57;;
6432;SDS011;3249;42.690;23.260;2023-07-24T07:16:14;17.80;;;12.27;;
6432;SDS011;3249;42.690;23.260;2023-07-24T07:18:54;23.37;;;12.90;;
6432;SDS011;3249;42.690;23.260;2023-07-24T07:21:27;19.30;;;13.67;;
6432;SDS011;3249;42.690;23.260;2023-07-24T07:23:56;19.17;;;13.53;;
6432;SDS011;3249;42.690;23.260;2023-07-24T07:26:28;23.00;;;13.90;;
6432;SDS011;3249;42.690;23.260;2023-07-24T07:28:58;19.90;;;13.73;;
6432;SDS011;3249;42.690;23.260;2023-07-24T07:31:27;22.50;;;12.87;;
6432;SDS011;3249;42.690;23.260;2023-07-24T07:33:56;20.80;;;12.90;;
6432;SDS011;3249;42.690;23.260;2023-07-24T07:36:25;16.50;;;12.27;;
6432;SDS011;3249;42.690;23.260;2023-07-24T07:38:54;16.33;;;13.03;;
6432;SDS011;3249;42.690;23.260;2023-07-24T07:41:25;19.17;;;12.67;;
6432;SDS011;3249;42.690;23.260;2023-07-24T07:43:57;20.23;;;13.30;;
6432;SDS011;3249;42.690;23.260;2023-07-24T07:46:26;21.40;;;12.77;;
6432;SDS011;3249;42.690;23.260;2023-07-24T07:48:55;15.83;;;11.90;;
6432;SDS011;3249;42.690;23.260;2023-07-24T07:51:24;14.63;;;12.57;;
6432;SDS011;3249;42.690;23.260;2023-07-24T07:53:54;15.30;;;12.67;;
6432;SDS011;3249;42.690;23.260;2023-07-24T07:56:23;16.37;;;13.20;;
6432;SDS011;3249;42.690;23.260;2023-07-24T07:58:54;16.97;;;13.43;;
6432;SDS011;3249;42.690;23.260;2023-07-24T08:01:24;15.07;;;12.23;;
6432;SDS011;3249;42.690;23.260;2023-07-24T08:03:52;20.70;;;12.43;;
6432;SDS011;3249;42.690;23.260;2023-07-24T08:06:25;20.47;;;13.17;;
6432;SDS011;3249;42.690;23.260;2023-07-24T08:08:55;23.80;;;12.33;;
6432;SDS011;3249;42.690;23.260;2023-07-24T08:11:24;17.97;;;12.23;;
6432;SDS011;3249;42.690;23.260;2023-07-24T08:13:56;18.13;;;13.00;;
6432;SDS011;3249;42.690;23.260;2023-07-24T08:16:25;18.83;;;12.43;;
6432;SDS011;3249;42.690;23.260;2023-07-24T08:18:53;21.87;;;15.97;;
6432;SDS011;3249;42.690;23.260;2023-07-24T08:21:23;19.97;;;13.20;;
6432;SDS011;3249;42.690;23.260;2023-07-24T08:23:52;49.63;;;15.17;;
6432;SDS011;3249;42.690;23.260;2023-07-24T08:26:24;23.10;;;14.20;;
6432;SDS011;3249;42.690;23.260;2023-07-24T08:28:59;20.20;;;13.47;;
6432;SDS011;3249;42.690;23.260;2023-07-24T08:31:32;13.60;;;12.20;;
6432;SDS011;3249;42.690;23.260;2023-07-24T08:34:01;19.27;;;12.27;;
6432;SDS011;3249;42.690;23.260;2023-07-24T08:36:29;17.90;;;14.03;;
6432;SDS011;3249;42.690;23.260;2023-07-24T08:38:58;15.80;;;12.57;;
6432;SDS011;3249;42.690;23.260;2023-07-24T08:41:29;15.90;;;11.83;;
6432;SDS011;3249;42.690;23.260;2023-07-24T08:44:03;15.87;;;12.17;;
6432;SDS011;3249;42.690;23.260;2023-07-24T08:46:36;21.53;;;12.23;;
6432;SDS011;3249;42.690;23.260;2023-07-24T08:49:09;16.43;;;12.10;;
6432;SDS011;3249;42.690;23.260;2023-07-24T08:51:42;18.13;;;11.93;;
6432;SDS011;3249;42.690;23.260;2023-07-24T08:54:12;18.97;;;12.23;;
6432;SDS011;3249;42.690;23.260;2023-07-24T08:56:43;14.93;;;11.77;;
6432;SDS011;3249;42.690;23.260;2023-07-24T08:59:18;13.70;;;10.63;;
6432;SDS011;3249;42.690;23.260;2023-07-24T09:01:48;17.73;;;12.03;;
6432;SDS011;3249;42.690;23.260;2023-07-24T09:04:17;18.77;;;12.10;;
6432;SDS011;3249;42.690;23.260;2023-07-24T09:06:47;17.93;;;12.70;;
6432;SDS011;3249;42.690;23.260;2023-07-24T09:09:17;15.87;;;11.97;;
6432;SDS011;3249;42.690;23.260;2023-07-24T09:11:47;16.87;;;12.53;;
6432;SDS011;3249;42.690;23.260;2023-07-24T09:14:24;16.43;;;12.43;;
6432;SDS011;3249;42.690;23.260;2023-07-24T09:17:07;17.60;;;12.13;;
6432;SDS011;3249;42.690;23.260;2023-07-24T09:19:38;15.53;;;11.57;;
6432;SDS011;3249;42.690;23.260;2023-07-24T09:22:07;16.23;;;11.23;;
6432;SDS011;3249;42.690;23.260;2023-07-24T09:24:50;24.00;;;12.97;;
6432;SDS011;3249;42.690;23.260;2023-07-24T09:27:20;19.50;;;11.83;;
6432;SDS011;3249;42.690;23.260;2023-07-24T09:29:55;17.00;;;11.77;;
6432;SDS011;3249;42.690;23.260;2023-07-24T09:32:25;17.20;;;11.77;;
6432;SDS011;3249;42.690;23.260;2023-07-24T09:34:57;14.53;;;11.50;;
6432;SDS011;3249;42.690;23.260;2023-07-24T09:37:26;17.77;;;12.20;;
6432;SDS011;3249;42.690;23.260;2023-07-24T09:39:56;15.10;;;13.57;;
6432;SDS011;3249;42.690;23.260;2023-07-24T09:42:29;22.03;;;14.63;;
6432;SDS011;3249;42.690;23.260;2023-07-24T09:45:02;19.27;;;13.37;;
6432;SDS011;3249;42.690;23.260;2023-07-24T09:47:34;20.67;;;13.40;;
6432;SDS011;3249;42.690;23.260;2023-07-24T09:50:03;17.83;;;12.47;;
6432;SDS011;3249;42.690;23.260;2023-07-24T09:52:34;17.80;;;12.13;;
6432;SDS011;3249;42.690;23.260;2023-07-24T09:55:08;16.33;;;13.40;;
6432;SDS011;3249;42.690;23.260;2023-07-24T09:57:40;17.07;;;12.23;;
6432;SDS011;3249;42.690;23.260;2023-07-24T10:00:13;17.13;;;11.37;;
6432;SDS011;3249;42.690;23.260;2023-07-24T10:02:43;16.73;;;11.33;;
6432;SDS011;3249;42.690;23.260;2023-07-24T10:05:13;17.73;;;11.37;;
6432;SDS011;3249;42.690;23.260;2023-07-24T10:07:44;15.23;;;10.97;;
6432;SDS011;3249;42.690;23.260;2023-07-24T10:10:14;16.87;;;10.80;;
6432;SDS011;3249;42.690;23.260;2023-07-24T10:12:43;18.70;;;10.77;;
6432;SDS011;3249;42.690;23.260;2023-07-24T10:15:16;15.77;;;10.47;;
6432;SDS011;3249;42.690;23.260;2023-07-24T10:17:47;18.07;;;11.10;;
6432;SDS011;3249;42.690;23.260;2023-07-24T10:20:16;18.63;;;11.23;;
6432;SDS011;3249;42.690;23.260;2023-07-24T10:22:45;18.37;;;11.23;;
6432;SDS011;3249;42.690;23.260;2023-07-24T10:25:17;20.33;;;11.67;;
6432;SDS011;3249;42.690;23.260;2023-07-24T10:27:46;18.27;;;10.77;;
6432;SDS011;3249;42.690;23.260;2023-07-24T10:30:27;13.53;;;10.53;;
6432;SDS011;3249;42.690;23.260;2023-07-24T10:33:08;18.27;;;9.90;;
6432;SDS011;3249;42.690;23.260;2023-07-24T10:35:39;20.47;;;11.17;;
6432;SDS011;3249;42.690;23.260;2023-07-24T10:38:09;19.27;;;10.97;;
6432;SDS011;3249;42.690;23.260;2023-07-24T10:40:39;14.30;;;9.07;;
6432;SDS011;3249;42.690;23.260;2023-07-24T10:43:12;12.70;;;8.37;;
6432;SDS011;3249;42.690;23.260;2023-07-24T10:45:46;12.60;;;8.30;;
6432;SDS011;3249;42.690;23.260;2023-07-24T10:48:16;12.90;;;7.80;;
6432;SDS011;3249;42.690;23.260;2023-07-24T10:50:45;15.13;;;8.80;;
6432;SDS011;3249;42.690;23.260;2023-07-24T10:53:17;18.90;;;9.73;;
6432;SDS011;3249;42.690;23.260;2023-07-24T10:55:47;15.00;;;8.10;;
6432;SDS011;3249;42.690;23.260;2023-07-24T10:58:17;12.23;;;9.30;;
6432;SDS011;3249;42.690;23.260;2023-07-24T11:00:48;22.43;;;10.07;;
6432;SDS011;3249;42.690;23.260;2023-07-24T11:03:18;12.77;;;9.43;;
6432;SDS011;3249;42.690;23.260;2023-07-24T11:05:47;19.07;;;9.37;;
6432;SDS011;3249;42.690;23.260;2023-07-24T11:08:17;12.47;;;8.60;;
6432;SDS011;3249;42.690;23.260;2023-07-24T11:10:48;11.97;;;8.33;;
6432;SDS011;3249;42.690;23.260;2023-07-24T11:13:19;11.80;;;8.67;;
6432;SDS011;3249;42.690;23.260;2023-07-24T11:15:52;20.13;;;9.50;;
6432;SDS011;3249;42.690;23.260;2023-07-24T11:18:22;14.47;;;8.63;;
6432;SDS011;3249;42.690;23.260;2023-07-24T11:20:54;16.13;;;8.73;;
6432;SDS011;3249;42.690;23.260;2023-07-24T11:23:24;12.50;;;8.60;;
6432;SDS011;3249;42.690;23.260;2023-07-24T11:25:53;10.50;;;9.00;;
6432;SDS011;3249;42.690;23.260;2023-07-24T11:28:22;11.83;;;9.57;;
6432;SDS011;3249;42.690;23.260;2023-07-24T11:30:54;17.70;;;9.53;;
6432;SDS011;3249;42.690;23.260;2023-07-24T11:33:30;14.63;;;9.37;;
6432;SDS011;3249;42.690;23.260;2023-07-24T11:36:00;12.77;;;9.40;;
6432;SDS011;3249;42.690;23.260;2023-07-24T11:38:29;16.13;;;9.03;;
6432;SDS011;3249;42.690;23.260;2023-07-24T11:40:58;10.50;;;8.97;;
6432;SDS011;3249;42.690;23.260;2023-07-24T11:43:28;13.03;;;8.73;;
6432;SDS011;3249;42.690;23.260;2023-07-24T11:45:59;14.90;;;9.60;;
6432;SDS011;3249;42.690;23.260;2023-07-24T11:48:29;12.67;;;9.90;;
6432;SDS011;3249;42.690;23.260;2023-07-24T11:50:58;13.20;;;9.10;;
6432;SDS011;3249;42.690;23.260;2023-07-24T11:53:28;16.27;;;9.80;;
6432;SDS011;3249;42.690;23.260;2023-07-24T11:55:59;14.83;;;9.63;;
6432;SDS011;3249;42.690;23.260;2023-07-24T11:58:28;12.27;;;8.47;;
6432;SDS011;3249;42.690;23.260;2023-07-24T12:01:01;11.60;;;8.83;;
6432;SDS011;3249;42.690;23.260;2023-07-24T12:03:30;12.27;;;9.30;;
6432;SDS011;3249;42.690;23.260;2023-07-24T12:06:00;10.93;;;9.73;;
6432;SDS011;3249;42.690;23.260;2023-07-24T12:08:31;14.63;;;9.33;;
6432;SDS011;3249;42.690;23.260;2023-07-24T12:11:04;13.10;;;8.20;;
6432;SDS011;3249;42.690;23.260;2023-07-24T12:13:42;15.17;;;8.97;;
6432;SDS011;3249;42.690;23.260;2023-07-24T12:16:14;14.40;;;8.77;;
6432;SDS011;3249;42.690;23.260;2023-07-24T12:18:44;15.23;;;9.73;;
6432;SDS011;3249;42.690;23.260;2023-07-24T12:21:13;12.10;;;9.00;;
6432;SDS011;3249;42.690;23.260;2023-07-24T12:23:42;12.90;;;9.57;;
6432;SDS011;3249;42.690;23.260;2023-07-24T12:26:12;16.17;;;10.43;;
6432;SDS011;3249;42.690;23.260;2023-07-24T12:28:41;17.03;;;9.70;;
6432;SDS011;3249;42.690;23.260;2023-07-24T12:31:15;10.80;;;9.50;;
6432;SDS011;3249;42.690;23.260;2023-07-24T12:33:49;10.83;;;9.17;;
6432;SDS011;3249;42.690;23.260;2023-07-24T12:36:22;10.67;;;9.47;;
6432;SDS011;3249;42.690;23.260;2023-07-24T12:38:54;12.77;;;9.13;;
6432;SDS011;3249;42.690;23.260;2023-07-24T12:41:23;13.23;;;9.07;;
6432;SDS011;3249;42.690;23.260;2023-07-24T12:43:52;10.87;;;9.17;;
6432;SDS011;3249;42.690;23.260;2023-07-24T12:46:24;9.67;;;8.67;;
6432;SDS011;3249;42.690;23.260;2023-07-24T12:48:54;10.97;;;9.33;;
6432;SDS011;3249;42.690;23.260;2023-07-24T12:51:23;15.63;;;9.17;;
6432;SDS011;3249;42.690;23.260;2023-07-24T12:53:52;13.03;;;8.87;;
6432;SDS011;3249;42.690;23.260;2023-07-24T12:56:21;12.93;;;9.50;;
6432;SDS011;3249;42.690;23.260;2023-07-24T12:58:51;13.70;;;9.80;;
6432;SDS011;3249;42.690;23.260;2023-07-24T13:01:20;12.53;;;9.83;;
6432;SDS011;3249;42.690;23.260;2023-07-24T13:03:52;9.73;;;8.70;;
6432;SDS011;3249;42.690;23.260;2023-07-24T13:06:21;14.97;;;9.93;;
6432;SDS011;3249;42.690;23.260;2023-07-24T13:08:50;9.70;;;8.70;;
6432;SDS011;3249;42.690;23.260;2023-07-24T13:11:19;11.97;;;9.87;;
6432;SDS011;3249;42.690;23.260;2023-07-24T13:13:55;16.70;;;9.50;;
6432;SDS011;3249;42.690;23.260;2023-07-24T13:16:25;15.57;;;9.57;;
6432;SDS011;3249;42.690;23.260;2023-07-24T13:18:58;13.23;;;9.73;;
6432;SDS011;3249;42.690;23.260;2023-07-24T13:21:26;15.17;;;9.37;;
6432;SDS011;3249;42.690;23.260;2023-07-24T13:23:56;13.27;;;9.60;;
6432;SDS011;3249;42.690;23.260;2023-07-24T13:26:26;11.93;;;10.53;;
6432;SDS011;3249;42.690;23.260;2023-07-24T13:28:57;11.57;;;9.87;;
6432;SDS011;3249;42.690;23.260;2023-07-24T13:31:27;12.37;;;10.80;;
6432;SDS011;3249;42.690;23.260;2023-07-24T13:33:59;14.37;;;10.87;;
6432;SDS011;3249;42.690;23.260;2023-07-24T13:36:28;13.37;;;10.37;;
6432;SDS011;3249;42.690;23.260;2023-07-24T13:38:58;15.17;;;10.60;;
6432;SDS011;3249;42.690;23.260;2023-07-24T13:41:28;10.00;;;8.93;;
6432;SDS011;3249;42.690;23.260;2023-07-24T13:43:58;14.83;;;10.67;;
6432;SDS011;3249;42.690;23.260;2023-07-24T13:46:28;12.83;;;9.50;;
6432;SDS011;3249;42.690;23.260;2023-07-24T13:49:00;13.53;;;10.03;;
6432;SDS011;3249;42.690;23.260;2023-07-24T13:51:30;13.00;;;10.20;;
6432;SDS011;3249;42.690;23.260;2023-07-24T13:54:00;11.63;;;10.43;;
6432;SDS011;3249;42.690;23.260;2023-07-24T13:56:35;15.73;;;10.23;;
6432;SDS011;3249;42.690;23.260;2023-07-24T13:59:07;18.10;;;10.50;;
6432;SDS011;3249;42.690;23.260;2023-07-24T14:01:37;13.77;;;9.80;;
6432;SDS011;3249;42.690;23.260;2023-07-24T14:04:12;11.90;;;10.70;;
6432;SDS011;3249;42.690;23.260;2023-07-24T14:06:41;14.50;;;11.80;;
6432;SDS011;3249;42.690;23.260;2023-07-24T14:09:12;15.43;;;10.83;;
6432;SDS011;3249;42.690;23.260;2023-07-24T14:11:42;11.23;;;10.03;;
6432;SDS011;3249;42.690;23.260;2023-07-24T14:14:12;11.77;;;10.60;;
6432;SDS011;3249;42.690;23.260;2023-07-24T14:16:43;17.97;;;11.73;;
6432;SDS011;3249;42.690;23.260;2023-07-24T14:19:20;12.27;;;10.80;;
6432;SDS011;3249;42.690;23.260;2023-07-24T14:21:52;12.60;;;11.40;;
6432;SDS011;3249;42.690;23.260;2023-07-24T14:24:21;11.60;;;10.40;;
6432;SDS011;3249;42.690;23.260;2023-07-24T14:26:52;12.70;;;11.00;;
6432;SDS011;3249;42.690;23.260;2023-07-24T14:29:28;11.63;;;10.40;;
6432;SDS011;3249;42.690;23.260;2023-07-24T14:32:08;12.37;;;11.07;;
6432;SDS011;3249;42.690;23.260;2023-07-24T14:34:41;13.57;;;10.80;;
6432;SDS011;3249;42.690;23.260;2023-07-24T14:37:13;13.10;;;10.53;;
6432;SDS011;3249;42.690;23.260;2023-07-24T14:39:43;11.67;;;10.43;;
6432;SDS011;3249;42.690;23.260;2023-07-24T14:42:15;16.03;;;11.53;;
6432;SDS011;3249;42.690;23.260;2023-07-24T14:44:46;12.70;;;11.40;;
6432;SDS011;3249;42.690;23.260;2023-07-24T14:47:18;15.47;;;11.20;;
6432;SDS011;3249;42.690;23.260;2023-07-24T14:49:56;11.77;;;10.53;;
6432;SDS011;3249;42.690;23.260;2023-07-24T14:52:25;12.70;;;11.50;;
6432;SDS011;3249;42.690;23.260;2023-07-24T14:54:56;12.53;;;11.17;;
6432;SDS011;3249;42.690;23.260;2023-07-24T14:57:24;12.43;;;11.17;;